Pine Falls, Canada
Current Conditions -  °F | °C
As of 7:16 AM on Sunday 23 Nov 2014 (Local Time) from CYWG Reporting Station
Haze Haze  
Wind Chill: 26°   Ceiling: 500
Heat Index: 32°   Visibility: 5mi
Dew Point: 30°   Wind: 6mph
Humidity: 93%   Direction: 180°S
Pressure: 29.35"   Gusts: NA
Location:  50.55°N, 96.23°W
Report Text: CYWG 231316Z 18005KT 5SM BR BKN005 OVC007 M00/M01 A2935 RMK ST6ST2 CIG RAG SLP949
Loading
Personal Weather Stations






























Interactive Weather Map New forecast layout! Learn more

10-Day Weather Forecast

Advertisements
Track Severe Weather on mobile